sensor_id;sensor_type;location;lat;lon;timestamp;pressure;altitude;pressure_sealevel;temperature;humidity
66430;BME280;53242;51.694;10.006;2022-07-23T00:01:21;99793.22;;;18.69;70.68
66430;BME280;53242;51.694;10.006;2022-07-23T00:03:43;99782.94;;;18.61;71.20
66430;BME280;53242;51.694;10.006;2022-07-23T00:06:06;99782.34;;;18.59;71.10
66430;BME280;53242;51.694;10.006;2022-07-23T00:08:28;99777.88;;;18.65;70.97
66430;BME280;53242;51.694;10.006;2022-07-23T00:10:51;99781.84;;;18.62;71.13
66430;BME280;53242;51.694;10.006;2022-07-23T00:13:13;99773.13;;;18.67;71.11
66430;BME280;53242;51.694;10.006;2022-07-23T00:15:36;99767.19;;;18.65;71.27
66430;BME280;53242;51.694;10.006;2022-07-23T00:17:58;99777.41;;;18.68;71.24
66430;BME280;53242;51.694;10.006;2022-07-23T00:20:21;99779.91;;;18.57;71.62
66430;BME280;53242;51.694;10.006;2022-07-23T00:22:53;99774.38;;;18.47;72.19
66430;BME280;53242;51.694;10.006;2022-07-23T00:25:16;99785.69;;;18.37;nan
66430;BME280;53242;51.694;10.006;2022-07-23T00:27:38;99773.38;;;18.36;72.81
66430;BME280;53242;51.694;10.006;2022-07-23T00:30:01;99780.00;;;18.34;72.66
66430;BME280;53242;51.694;10.006;2022-07-23T00:32:24;99799.19;;;18.31;72.98
66430;BME280;53242;51.694;10.006;2022-07-23T00:34:46;99801.88;;;18.31;73.18
66430;BME280;53242;51.694;10.006;2022-07-23T00:37:08;99807.34;;;18.24;72.95
66430;BME280;53242;51.694;10.006;2022-07-23T00:39:31;99795.78;;;18.06;73.41
66430;BME280;53242;51.694;10.006;2022-07-23T00:41:53;99762.50;;;17.97;73.87
66430;BME280;53242;51.694;10.006;2022-07-23T00:46:45;99735.91;;;17.79;74.76
66430;BME280;53242;51.694;10.006;2022-07-23T00:49:07;99728.28;;;17.70;75.09
66430;BME280;53242;51.694;10.006;2022-07-23T00:51:30;99735.78;;;17.85;74.55
66430;BME280;53242;51.694;10.006;2022-07-23T00:53:56;99746.81;;;18.01;74.12
66430;BME280;53242;51.694;10.006;2022-07-23T00:56:18;99753.75;;;18.02;73.75
66430;BME280;53242;51.694;10.006;2022-07-23T00:58:41;99741.69;;;17.99;74.04
66430;BME280;53242;51.694;10.006;2022-07-23T01:01:04;99751.19;;;18.07;73.62
66430;BME280;53242;51.694;10.006;2022-07-23T01:03:27;99753.03;;;18.06;73.71
66430;BME280;53242;51.694;10.006;2022-07-23T01:05:49;99744.34;;;18.11;73.32
66430;BME280;53242;51.694;10.006;2022-07-23T01:08:12;99736.00;;;17.84;74.99
66430;BME280;53242;51.694;10.006;2022-07-23T01:10:36;99734.16;;;17.96;74.24
66430;BME280;53242;51.694;10.006;2022-07-23T01:13:03;99733.75;;;18.04;73.53
66430;BME280;53242;51.694;10.006;2022-07-23T01:15:26;99729.25;;;18.05;73.50
66430;BME280;53242;51.694;10.006;2022-07-23T01:17:48;99735.72;;;18.09;73.44
66430;BME280;53242;51.694;10.006;2022-07-23T01:20:11;99736.31;;;18.11;73.34
66430;BME280;53242;51.694;10.006;2022-07-23T01:22:34;99744.66;;;18.15;73.13
66430;BME280;53242;51.694;10.006;2022-07-23T01:24:56;99735.34;;;18.17;73.08
66430;BME280;53242;51.694;10.006;2022-07-23T01:27:20;99729.28;;;18.22;73.11
66430;BME280;53242;51.694;10.006;2022-07-23T01:29:44;99729.53;;;18.20;73.30
66430;BME280;53242;51.694;10.006;2022-07-23T01:32:11;99726.63;;;18.22;73.13
66430;BME280;53242;51.694;10.006;2022-07-23T01:34:34;99727.56;;;18.16;73.17
66430;BME280;53242;51.694;10.006;2022-07-23T01:36:56;99723.38;;;18.20;73.09
66430;BME280;53242;51.694;10.006;2022-07-23T01:39:19;99713.50;;;18.20;73.13
66430;BME280;53242;51.694;10.006;2022-07-23T01:41:42;99713.25;;;18.22;73.03
66430;BME280;53242;51.694;10.006;2022-07-23T01:44:05;99720.69;;;18.20;73.13
66430;BME280;53242;51.694;10.006;2022-07-23T01:46:27;99729.78;;;18.19;73.49
66430;BME280;53242;51.694;10.006;2022-07-23T01:48:50;99737.72;;;18.14;73.70
66430;BME280;53242;51.694;10.006;2022-07-23T01:51:25;99721.09;;;18.12;73.96
66430;BME280;53242;51.694;10.006;2022-07-23T01:53:58;99725.94;;;18.15;73.71
66430;BME280;53242;51.694;10.006;2022-07-23T01:56:20;99736.06;;;18.13;74.11
66430;BME280;53242;51.694;10.006;2022-07-23T01:58:43;99741.75;;;18.16;73.74
66430;BME280;53242;51.694;10.006;2022-07-23T02:01:06;99734.31;;;18.18;73.73
66430;BME280;53242;51.694;10.006;2022-07-23T02:03:28;99750.31;;;18.18;73.75
66430;BME280;53242;51.694;10.006;2022-07-23T02:05:51;99746.28;;;18.16;73.86
66430;BME280;53242;51.694;10.006;2022-07-23T02:08:13;99734.53;;;18.17;73.97
66430;BME280;53242;51.694;10.006;2022-07-23T02:10:36;99721.88;;;18.12;73.82
66430;BME280;53242;51.694;10.006;2022-07-23T02:12:59;99720.94;;;18.18;73.62
66430;BME280;53242;51.694;10.006;2022-07-23T02:15:22;99722.13;;;18.11;73.94
66430;BME280;53242;51.694;10.006;2022-07-23T02:17:45;99723.28;;;18.15;73.83
66430;BME280;53242;51.694;10.006;2022-07-23T02:20:09;99719.81;;;18.14;74.05
66430;BME280;53242;51.694;10.006;2022-07-23T02:22:32;99722.72;;;18.13;74.21
66430;BME280;53242;51.694;10.006;2022-07-23T02:24:55;99721.69;;;18.02;74.67
66430;BME280;53242;51.694;10.006;2022-07-23T02:27:18;99716.00;;;18.10;74.22
66430;BME280;53242;51.694;10.006;2022-07-23T02:29:41;99723.75;;;18.12;74.12
66430;BME280;53242;51.694;10.006;2022-07-23T02:32:04;99741.31;;;18.07;74.41
66430;BME280;53242;51.694;10.006;2022-07-23T02:34:26;99753.28;;;18.05;74.89
66430;BME280;53242;51.694;10.006;2022-07-23T02:36:49;99751.91;;;18.02;75.12
66430;BME280;53242;51.694;10.006;2022-07-23T02:39:11;99760.84;;;17.96;75.22
66430;BME280;53242;51.694;10.006;2022-07-23T02:41:34;99762.00;;;18.00;75.07
66430;BME280;53242;51.694;10.006;2022-07-23T02:43:57;99762.94;;;17.94;75.35
66430;BME280;53242;51.694;10.006;2022-07-23T02:46:19;99762.34;;;17.92;75.62
66430;BME280;53242;51.694;10.006;2022-07-23T02:48:42;99770.50;;;17.85;75.36
66430;BME280;53242;51.694;10.006;2022-07-23T02:51:05;99767.84;;;17.73;75.90
66430;BME280;53242;51.694;10.006;2022-07-23T02:53:33;99765.50;;;17.77;75.71
66430;BME280;53242;51.694;10.006;2022-07-23T02:55:56;99766.44;;;17.83;75.41
66430;BME280;53242;51.694;10.006;2022-07-23T02:58:18;99768.28;;;17.82;75.11
66430;BME280;53242;51.694;10.006;2022-07-23T03:00:41;99759.13;;;17.78;75.14
66430;BME280;53242;51.694;10.006;2022-07-23T03:03:03;99750.78;;;17.74;75.35
66430;BME280;53242;51.694;10.006;2022-07-23T03:05:27;99741.66;;;17.58;76.18
66430;BME280;53242;51.694;10.006;2022-07-23T03:07:49;99740.50;;;17.54;75.92
66430;BME280;53242;51.694;10.006;2022-07-23T03:10:12;99743.63;;;17.51;76.01
66430;BME280;53242;51.694;10.006;2022-07-23T03:12:34;99750.81;;;17.51;75.96
66430;BME280;53242;51.694;10.006;2022-07-23T03:14:56;99760.56;;;17.57;75.76
66430;BME280;53242;51.694;10.006;2022-07-23T03:17:19;99753.84;;;17.54;75.54
66430;BME280;53242;51.694;10.006;2022-07-23T03:19:43;99747.56;;;17.49;75.63
66430;BME280;53242;51.694;10.006;2022-07-23T03:22:06;99749.19;;;17.50;75.25
66430;BME280;53242;51.694;10.006;2022-07-23T03:24:28;99745.00;;;17.54;75.43
66430;BME280;53242;51.694;10.006;2022-07-23T03:27:11;99771.13;;;17.52;75.63
66430;BME280;53242;51.694;10.006;2022-07-23T03:29:33;99769.84;;;17.54;75.50
66430;BME280;53242;51.694;10.006;2022-07-23T03:31:56;99763.91;;;17.64;74.89
66430;BME280;53242;51.694;10.006;2022-07-23T03:34:18;99757.63;;;17.70;74.70
66430;BME280;53242;51.694;10.006;2022-07-23T03:36:41;99755.06;;;17.75;74.62
66430;BME280;53242;51.694;10.006;2022-07-23T03:39:04;99748.09;;;17.74;74.65
66430;BME280;53242;51.694;10.006;2022-07-23T03:41:26;99742.63;;;17.81;74.53
66430;BME280;53242;51.694;10.006;2022-07-23T03:43:50;99746.38;;;17.80;74.71
66430;BME280;53242;51.694;10.006;2022-07-23T03:46:12;99750.44;;;17.83;74.66
66430;BME280;53242;51.694;10.006;2022-07-23T03:48:35;99741.34;;;17.84;74.16
66430;BME280;53242;51.694;10.006;2022-07-23T03:50:58;99725.31;;;17.84;74.45
66430;BME280;53242;51.694;10.006;2022-07-23T03:53:20;99732.19;;;17.80;74.80
66430;BME280;53242;51.694;10.006;2022-07-23T03:55:43;99748.09;;;17.74;74.70
66430;BME280;53242;51.694;10.006;2022-07-23T03:58:05;99742.97;;;17.85;74.92
66430;BME280;53242;51.694;10.006;2022-07-23T04:00:28;99748.06;;;17.86;74.62
66430;BME280;53242;51.694;10.006;2022-07-23T04:02:50;99746.22;;;17.87;74.66
66430;BME280;53242;51.694;10.006;2022-07-23T04:05:13;99743.47;;;17.82;75.11
66430;BME280;53242;51.694;10.006;2022-07-23T04:07:38;99747.16;;;17.81;75.12
66430;BME280;53242;51.694;10.006;2022-07-23T04:10:02;99738.47;;;17.85;74.83
66430;BME280;53242;51.694;10.006;2022-07-23T04:12:25;99731.84;;;17.88;74.54
66430;BME280;53242;51.694;10.006;2022-07-23T04:14:48;99717.72;;;17.64;75.09
66430;BME280;53242;51.694;10.006;2022-07-23T04:17:12;99712.63;;;17.62;75.08
66430;BME280;53242;51.694;10.006;2022-07-23T04:19:34;99707.78;;;17.47;75.13
66430;BME280;53242;51.694;10.006;2022-07-23T04:22:01;99668.38;;;17.25;75.98
66430;BME280;53242;51.694;10.006;2022-07-23T04:24:25;99686.59;;;17.17;76.27
66430;BME280;53242;51.694;10.006;2022-07-23T04:26:48;99699.91;;;17.17;75.89
66430;BME280;53242;51.694;10.006;2022-07-23T04:29:11;99696.44;;;17.16;75.70
66430;BME280;53242;51.694;10.006;2022-07-23T04:31:33;99713.03;;;17.18;76.16
66430;BME280;53242;51.694;10.006;2022-07-23T04:33:56;99726.81;;;17.27;75.53
66430;BME280;53242;51.694;10.006;2022-07-23T04:36:18;99737.81;;;17.42;74.99
66430;BME280;53242;51.694;10.006;2022-07-23T04:38:41;99738.53;;;17.50;74.79
66430;BME280;53242;51.694;10.006;2022-07-23T04:41:04;99761.38;;;17.57;74.45
66430;BME280;53242;51.694;10.006;2022-07-23T04:43:27;99765.44;;;17.60;74.51
66430;BME280;53242;51.694;10.006;2022-07-23T04:45:50;99770.53;;;17.62;74.72
66430;BME280;53242;51.694;10.006;2022-07-23T04:48:13;99768.31;;;17.70;74.54
66430;BME280;53242;51.694;10.006;2022-07-23T04:50:35;99765.16;;;17.73;74.52
66430;BME280;53242;51.694;10.006;2022-07-23T04:53:00;99757.84;;;17.81;74.69
66430;BME280;53242;51.694;10.006;2022-07-23T04:55:23;99755.38;;;17.91;74.51
66430;BME280;53242;51.694;10.006;2022-07-23T04:57:46;99758.66;;;17.93;74.49
66430;BME280;53242;51.694;10.006;2022-07-23T05:00:09;99753.50;;;17.91;74.50
66430;BME280;53242;51.694;10.006;2022-07-23T05:02:32;99754.47;;;17.97;74.43
66430;BME280;53242;51.694;10.006;2022-07-23T05:04:54;99749.69;;;17.99;74.20
66430;BME280;53242;51.694;10.006;2022-07-23T05:07:17;99749.47;;;18.01;74.51
66430;BME280;53242;51.694;10.006;2022-07-23T05:09:40;99753.28;;;18.05;74.41
66430;BME280;53242;51.694;10.006;2022-07-23T05:12:02;99753.84;;;18.07;74.48
66430;BME280;53242;51.694;10.006;2022-07-23T05:14:27;99742.13;;;18.08;74.65
66430;BME280;53242;51.694;10.006;2022-07-23T05:16:50;99735.63;;;18.04;74.45
66430;BME280;53242;51.694;10.006;2022-07-23T05:19:18;99733.06;;;18.09;74.53
66430;BME280;53242;51.694;10.006;2022-07-23T05:21:41;99738.50;;;18.14;74.48
66430;BME280;53242;51.694;10.006;2022-07-23T05:24:04;99740.84;;;18.11;75.03
66430;BME280;53242;51.694;10.006;2022-07-23T05:26:27;99727.53;;;17.99;75.37
66430;BME280;53242;51.694;10.006;2022-07-23T05:28:50;99719.56;;;18.16;74.59
66430;BME280;53242;51.694;10.006;2022-07-23T05:31:15;99718.28;;;18.18;74.41
66430;BME280;53242;51.694;10.006;2022-07-23T05:33:37;99721.63;;;18.26;74.19
66430;BME280;53242;51.694;10.006;2022-07-23T05:36:01;99735.06;;;18.31;74.21
66430;BME280;53242;51.694;10.006;2022-07-23T05:38:25;99731.56;;;18.30;74.39
66430;BME280;53242;51.694;10.006;2022-07-23T05:40:50;99725.53;;;18.35;74.12
66430;BME280;53242;51.694;10.006;2022-07-23T05:43:13;99733.88;;;18.38;74.05
66430;BME280;53242;51.694;10.006;2022-07-23T05:45:36;99721.06;;;18.40;73.72
66430;BME280;53242;51.694;10.006;2022-07-23T05:47:58;99719.88;;;18.48;73.67
66430;BME280;53242;51.694;10.006;2022-07-23T05:50:27;99728.31;;;18.57;73.40
66430;BME280;53242;51.694;10.006;2022-07-23T05:52:56;99727.84;;;18.60;73.51
66430;BME280;53242;51.694;10.006;2022-07-23T05:55:37;99738.28;;;18.62;73.40
66430;BME280;53242;51.694;10.006;2022-07-23T05:57:59;99743.38;;;18.63;73.35
66430;BME280;53242;51.694;10.006;2022-07-23T06:00:24;99752.41;;;18.74;72.76
66430;BME280;53242;51.694;10.006;2022-07-23T06:02:46;99754.25;;;18.73;72.91
66430;BME280;53242;51.694;10.006;2022-07-23T06:05:11;99761.38;;;18.85;72.56
66430;BME280;53242;51.694;10.006;2022-07-23T06:07:35;99759.94;;;18.94;72.65
66430;BME280;53242;51.694;10.006;2022-07-23T06:09:59;99758.19;;;19.00;72.12
66430;BME280;53242;51.694;10.006;2022-07-23T06:12:21;99760.88;;;18.88;72.76
66430;BME280;53242;51.694;10.006;2022-07-23T06:14:44;99765.69;;;18.86;72.32
66430;BME280;53242;51.694;10.006;2022-07-23T06:17:07;99767.44;;;18.80;72.49
66430;BME280;53242;51.694;10.006;2022-07-23T06:19:29;99765.50;;;18.76;72.78
66430;BME280;53242;51.694;10.006;2022-07-23T06:21:52;99764.75;;;18.63;73.32
66430;BME280;53242;51.694;10.006;2022-07-23T06:24:14;99760.88;;;18.71;73.32
66430;BME280;53242;51.694;10.006;2022-07-23T06:26:37;99776.13;;;18.70;73.31
66430;BME280;53242;51.694;10.006;2022-07-23T06:29:00;99773.91;;;18.67;73.06
66430;BME280;53242;51.694;10.006;2022-07-23T06:31:22;99768.81;;;18.66;72.67
66430;BME280;53242;51.694;10.006;2022-07-23T06:33:44;99771.03;;;18.69;71.93
66430;BME280;53242;51.694;10.006;2022-07-23T06:36:07;99764.47;;;18.77;71.22
66430;BME280;53242;51.694;10.006;2022-07-23T06:38:29;99767.44;;;18.92;70.74
66430;BME280;53242;51.694;10.006;2022-07-23T06:40:52;99766.66;;;19.14;70.18
66430;BME280;53242;51.694;10.006;2022-07-23T06:43:15;99761.97;;;19.21;69.84
66430;BME280;53242;51.694;10.006;2022-07-23T06:45:40;99766.34;;;19.27;69.46
66430;BME280;53242;51.694;10.006;2022-07-23T06:48:03;99759.06;;;19.05;70.69
66430;BME280;53242;51.694;10.006;2022-07-23T06:50:25;99772.09;;;19.19;70.08
66430;BME280;53242;51.694;10.006;2022-07-23T06:52:48;99773.22;;;19.40;69.69
66430;BME280;53242;51.694;10.006;2022-07-23T06:55:10;99775.28;;;19.55;69.02
66430;BME280;53242;51.694;10.006;2022-07-23T06:57:34;99769.88;;;19.50;69.15
66430;BME280;53242;51.694;10.006;2022-07-23T06:59:56;99772.06;;;19.75;68.33
66430;BME280;53242;51.694;10.006;2022-07-23T07:02:18;99775.50;;;19.87;67.23
66430;BME280;53242;51.694;10.006;2022-07-23T07:04:41;99774.47;;;19.94;66.81
66430;BME280;53242;51.694;10.006;2022-07-23T07:07:03;99771.97;;;20.09;66.38
66430;BME280;53242;51.694;10.006;2022-07-23T07:09:26;99778.22;;;20.15;66.04
66430;BME280;53242;51.694;10.006;2022-07-23T07:11:48;99774.97;;;20.13;66.36
66430;BME280;53242;51.694;10.006;2022-07-23T07:14:11;99779.22;;;20.09;66.48
66430;BME280;53242;51.694;10.006;2022-07-23T07:16:33;99775.63;;;19.98;66.25
66430;BME280;53242;51.694;10.006;2022-07-23T07:18:56;99787.81;;;20.11;65.89
66430;BME280;53242;51.694;10.006;2022-07-23T07:21:18;99798.28;;;20.12;66.06
66430;BME280;53242;51.694;10.006;2022-07-23T07:23:41;99796.56;;;20.28;65.95
66430;BME280;53242;51.694;10.006;2022-07-23T07:26:03;99805.84;;;20.43;65.70
66430;BME280;53242;51.694;10.006;2022-07-23T07:28:26;99806.28;;;20.62;64.97
66430;BME280;53242;51.694;10.006;2022-07-23T07:30:48;99809.75;;;20.84;64.64
66430;BME280;53242;51.694;10.006;2022-07-23T07:33:11;99819.53;;;20.96;64.33
66430;BME280;53242;51.694;10.006;2022-07-23T07:35:33;99818.59;;;21.12;64.06
66430;BME280;53242;51.694;10.006;2022-07-23T07:37:55;99825.22;;;21.05;63.68
66430;BME280;53242;51.694;10.006;2022-07-23T07:40:18;99825.72;;;21.01;63.23
66430;BME280;53242;51.694;10.006;2022-07-23T07:42:45;99831.41;;;21.05;62.03
66430;BME280;53242;51.694;10.006;2022-07-23T07:45:08;99832.41;;;20.99;61.52
66430;BME280;53242;51.694;10.006;2022-07-23T07:47:31;99836.75;;;20.73;62.27
66430;BME280;53242;51.694;10.006;2022-07-23T07:49:53;99837.47;;;20.68;61.99
66430;BME280;53242;51.694;10.006;2022-07-23T07:52:16;99844.03;;;20.77;60.73
66430;BME280;53242;51.694;10.006;2022-07-23T07:54:38;99842.97;;;20.78;60.89
66430;BME280;53242;51.694;10.006;2022-07-23T07:57:01;99843.09;;;20.94;60.45
66430;BME280;53242;51.694;10.006;2022-07-23T07:59:23;99835.75;;;21.11;60.00
66430;BME280;53242;51.694;10.006;2022-07-23T08:01:46;99834.50;;;21.24;59.64
66430;BME280;53242;51.694;10.006;2022-07-23T08:04:08;99837.13;;;21.14;59.94
66430;BME280;53242;51.694;10.006;2022-07-23T08:06:31;99835.13;;;21.36;59.77
66430;BME280;53242;51.694;10.006;2022-07-23T08:08:53;99840.38;;;21.21;59.56
66430;BME280;53242;51.694;10.006;2022-07-23T08:11:16;99843.06;;;21.21;59.59
66430;BME280;53242;51.694;10.006;2022-07-23T08:13:38;99842.97;;;21.43;58.29
66430;BME280;53242;51.694;10.006;2022-07-23T08:16:01;99844.84;;;21.43;58.63
66430;BME280;53242;51.694;10.006;2022-07-23T08:18:23;99844.75;;;21.32;59.32
66430;BME280;53242;51.694;10.006;2022-07-23T08:20:46;99843.53;;;21.13;59.62
66430;BME280;53242;51.694;10.006;2022-07-23T08:23:08;99844.00;;;21.05;59.94
66430;BME280;53242;51.694;10.006;2022-07-23T08:25:32;99844.19;;;21.25;58.70
66430;BME280;53242;51.694;10.006;2022-07-23T08:27:56;99842.84;;;21.60;57.51
66430;BME280;53242;51.694;10.006;2022-07-23T08:30:19;99845.34;;;21.77;57.27
66430;BME280;53242;51.694;10.006;2022-07-23T08:32:50;99848.03;;;21.77;57.02
66430;BME280;53242;51.694;10.006;2022-07-23T08:35:12;99847.84;;;21.51;57.41
66430;BME280;53242;51.694;10.006;2022-07-23T08:37:36;99861.28;;;21.51;57.60
66430;BME280;53242;51.694;10.006;2022-07-23T08:39:58;99856.03;;;21.67;57.09
66430;BME280;53242;51.694;10.006;2022-07-23T08:42:20;99855.78;;;21.68;56.72
66430;BME280;53242;51.694;10.006;2022-07-23T08:44:45;99855.56;;;21.80;55.95
66430;BME280;53242;51.694;10.006;2022-07-23T08:47:08;99862.16;;;22.05;55.27
66430;BME280;53242;51.694;10.006;2022-07-23T08:49:32;99852.56;;;22.25;54.32
66430;BME280;53242;51.694;10.006;2022-07-23T08:51:55;99857.69;;;22.26;53.50
66430;BME280;53242;51.694;10.006;2022-07-23T08:54:17;99851.34;;;22.53;52.48
66430;BME280;53242;51.694;10.006;2022-07-23T08:56:40;99855.25;;;22.20;52.94
66430;BME280;53242;51.694;10.006;2022-07-23T08:59:02;99852.94;;;21.91;53.43
66430;BME280;53242;51.694;10.006;2022-07-23T09:01:25;99865.03;;;21.88;54.06
66430;BME280;53242;51.694;10.006;2022-07-23T09:03:47;99863.44;;;21.87;53.99
66430;BME280;53242;51.694;10.006;2022-07-23T09:06:10;99867.31;;;22.12;53.29
66430;BME280;53242;51.694;10.006;2022-07-23T09:08:39;99861.34;;;22.05;52.71
66430;BME280;53242;51.694;10.006;2022-07-23T09:11:03;99867.00;;;22.03;52.46
66430;BME280;53242;51.694;10.006;2022-07-23T09:15:53;99863.72;;;21.96;52.61
66430;BME280;53242;51.694;10.006;2022-07-23T09:18:16;99867.38;;;21.74;53.26
66430;BME280;53242;51.694;10.006;2022-07-23T09:20:38;99857.19;;;21.81;53.92
66430;BME280;53242;51.694;10.006;2022-07-23T09:23:00;99867.00;;;22.08;53.36
66430;BME280;53242;51.694;10.006;2022-07-23T09:25:23;99853.06;;;22.16;52.76
66430;BME280;53242;51.694;10.006;2022-07-23T09:27:57;99861.94;;;22.12;52.19
66430;BME280;53242;51.694;10.006;2022-07-23T09:30:26;99854.38;;;22.09;52.45
66430;BME280;53242;51.694;10.006;2022-07-23T09:33:10;99855.53;;;22.28;51.87
66430;BME280;53242;51.694;10.006;2022-07-23T09:36:02;99860.22;;;22.54;51.14
66430;BME280;53242;51.694;10.006;2022-07-23T09:38:25;99857.03;;;22.77;51.63
66430;BME280;53242;51.694;10.006;2022-07-23T09:41:08;99860.56;;;23.04;50.31
66430;BME280;53242;51.694;10.006;2022-07-23T09:43:31;99857.06;;;23.03;50.01
66430;BME280;53242;51.694;10.006;2022-07-23T09:45:53;99851.94;;;23.02;49.51
66430;BME280;53242;51.694;10.006;2022-07-23T09:48:36;99858.97;;;23.23;49.73
66430;BME280;53242;51.694;10.006;2022-07-23T09:51:02;99855.19;;;23.14;49.79
66430;BME280;53242;51.694;10.006;2022-07-23T09:53:25;99848.75;;;23.41;49.74
66430;BME280;53242;51.694;10.006;2022-07-23T09:55:48;99848.97;;;23.65;48.69
66430;BME280;53242;51.694;10.006;2022-07-23T09:58:11;99854.13;;;23.51;48.55
66430;BME280;53242;51.694;10.006;2022-07-23T10:00:36;99851.91;;;23.63;48.47
66430;BME280;53242;51.694;10.006;2022-07-23T10:02:59;99861.63;;;23.59;48.31
66430;BME280;53242;51.694;10.006;2022-07-23T10:05:25;99856.22;;;23.75;47.83
66430;BME280;53242;51.694;10.006;2022-07-23T10:08:08;99858.09;;;23.95;48.24
66430;BME280;53242;51.694;10.006;2022-07-23T10:10:56;99843.22;;;24.08;47.13
66430;BME280;53242;51.694;10.006;2022-07-23T10:13:40;99852.72;;;23.79;47.36
66430;BME280;53242;51.694;10.006;2022-07-23T10:16:15;99857.28;;;23.89;47.11
66430;BME280;53242;51.694;10.006;2022-07-23T10:18:38;99853.50;;;23.80;46.99
66430;BME280;53242;51.694;10.006;2022-07-23T10:21:06;99856.81;;;23.51;47.28
66430;BME280;53242;51.694;10.006;2022-07-23T10:23:39;99852.78;;;23.28;48.35
66430;BME280;53242;51.694;10.006;2022-07-23T10:26:30;99857.34;;;23.38;47.90
66430;BME280;53242;51.694;10.006;2022-07-23T10:31:40;99847.56;;;23.88;47.27
66430;BME280;53242;51.694;10.006;2022-07-23T10:36:56;99843.78;;;24.05;45.98
66430;BME280;53242;51.694;10.006;2022-07-23T10:39:24;99848.06;;;24.06;46.17
66430;BME280;53242;51.694;10.006;2022-07-23T10:41:48;99838.94;;;23.96;46.13
66430;BME280;53242;51.694;10.006;2022-07-23T10:44:20;99836.28;;;23.76;46.49
66430;BME280;53242;51.694;10.006;2022-07-23T10:47:00;99839.28;;;23.54;46.85
66430;BME280;53242;51.694;10.006;2022-07-23T10:49:42;99840.06;;;23.59;46.73
66430;BME280;53242;51.694;10.006;2022-07-23T10:54:36;99846.25;;;23.91;45.77
66430;BME280;53242;51.694;10.006;2022-07-23T10:59:20;99828.09;;;24.12;45.32
66430;BME280;53242;51.694;10.006;2022-07-23T11:01:43;99836.59;;;24.40;45.01
66430;BME280;53242;51.694;10.006;2022-07-23T11:04:06;99835.91;;;24.69;45.01
66430;BME280;53242;51.694;10.006;2022-07-23T11:11:49;99845.69;;;23.84;45.69
66430;BME280;53242;51.694;10.006;2022-07-23T11:14:11;99833.47;;;24.12;45.15
66430;BME280;53242;51.694;10.006;2022-07-23T11:16:46;99838.00;;;24.27;44.85
66430;BME280;53242;51.694;10.006;2022-07-23T11:19:10;99842.06;;;24.24;44.71
66430;BME280;53242;51.694;10.006;2022-07-23T11:24:06;99833.38;;;24.33;44.08
66430;BME280;53242;51.694;10.006;2022-07-23T11:37:00;99831.28;;;24.24;44.37
66430;BME280;53242;51.694;10.006;2022-07-23T11:39:25;99829.78;;;24.53;43.89
66430;BME280;53242;51.694;10.006;2022-07-23T11:41:48;99833.88;;;24.90;43.10
66430;BME280;53242;51.694;10.006;2022-07-23T11:44:31;99833.75;;;25.05;42.33
66430;BME280;53242;51.694;10.006;2022-07-23T11:46:58;99829.94;;;25.06;42.32
66430;BME280;53242;51.694;10.006;2022-07-23T11:49:21;99833.63;;;25.21;42.16
66430;BME280;53242;51.694;10.006;2022-07-23T11:51:43;99833.84;;;24.95;42.33
66430;BME280;53242;51.694;10.006;2022-07-23T11:54:06;99834.84;;;25.04;42.05
66430;BME280;53242;51.694;10.006;2022-07-23T11:56:29;99831.56;;;25.07;41.81
66430;BME280;53242;51.694;10.006;2022-07-23T11:58:56;99833.78;;;25.29;41.29
66430;BME280;53242;51.694;10.006;2022-07-23T12:01:20;99818.03;;;25.42;40.61
66430;BME280;53242;51.694;10.006;2022-07-23T12:03:50;99825.75;;;25.54;39.94
66430;BME280;53242;51.694;10.006;2022-07-23T12:06:12;99825.31;;;25.47;40.13
66430;BME280;53242;51.694;10.006;2022-07-23T12:08:41;99827.22;;;25.41;40.03
66430;BME280;53242;51.694;10.006;2022-07-23T12:11:05;99821.31;;;25.39;40.66
66430;BME280;53242;51.694;10.006;2022-07-23T12:13:28;99824.97;;;25.53;40.47
66430;BME280;53242;51.694;10.006;2022-07-23T12:15:52;99815.94;;;25.39;40.30
66430;BME280;53242;51.694;10.006;2022-07-23T12:18:20;99823.81;;;25.59;40.15
66430;BME280;53242;51.694;10.006;2022-07-23T12:20:45;99811.94;;;25.55;39.78
66430;BME280;53242;51.694;10.006;2022-07-23T12:23:10;99819.13;;;25.41;39.88
66430;BME280;53242;51.694;10.006;2022-07-23T12:25:39;99810.63;;;25.53;39.86
66430;BME280;53242;51.694;10.006;2022-07-23T12:28:08;99813.56;;;25.56;39.56
66430;BME280;53242;51.694;10.006;2022-07-23T12:30:45;99811.16;;;25.79;39.26
66430;BME280;53242;51.694;10.006;2022-07-23T12:33:09;99810.44;;;25.92;39.29
66430;BME280;53242;51.694;10.006;2022-07-23T12:35:41;99809.88;;;25.96;38.89
66430;BME280;53242;51.694;10.006;2022-07-23T12:38:09;99812.66;;;25.90;39.31
66430;BME280;53242;51.694;10.006;2022-07-23T12:40:50;99807.19;;;25.96;39.12
66430;BME280;53242;51.694;10.006;2022-07-23T12:48:15;99804.56;;;25.66;39.93
66430;BME280;53242;51.694;10.006;2022-07-23T12:55:29;99813.88;;;25.79;38.98
66430;BME280;53242;51.694;10.006;2022-07-23T12:57:51;99805.69;;;25.84;39.19
66430;BME280;53242;51.694;10.006;2022-07-23T13:00:14;99798.41;;;26.04;38.82
66430;BME280;53242;51.694;10.006;2022-07-23T13:02:46;99812.38;;;26.16;38.76
66430;BME280;53242;51.694;10.006;2022-07-23T13:05:08;99812.06;;;26.18;38.81
66430;BME280;53242;51.694;10.006;2022-07-23T13:07:31;99818.28;;;26.18;38.81
66430;BME280;53242;51.694;10.006;2022-07-23T13:09:53;99808.66;;;26.07;38.66
66430;BME280;53242;51.694;10.006;2022-07-23T13:12:16;99805.91;;;26.12;38.89
66430;BME280;53242;51.694;10.006;2022-07-23T13:14:38;99802.84;;;26.19;38.54
66430;BME280;53242;51.694;10.006;2022-07-23T13:17:01;99815.00;;;25.97;38.41
66430;BME280;53242;51.694;10.006;2022-07-23T13:19:23;99806.88;;;25.97;38.33